sensor_id;sensor_type;location;lat;lon;timestamp;pressure;altitude;pressure_sealevel;temperature;humidity
34566;BME280;20803;42.676;26.348;2023-08-06T00:01:25;97462.50;;;27.12;79.65
34566;BME280;20803;42.676;26.348;2023-08-06T00:03:51;97463.81;;;27.11;79.38
34566;BME280;20803;42.676;26.348;2023-08-06T00:06:16;97449.53;;;27.11;79.54
34566;BME280;20803;42.676;26.348;2023-08-06T00:08:42;97456.78;;;27.12;79.32
34566;BME280;20803;42.676;26.348;2023-08-06T00:11:09;97448.06;;;26.96;80.41
34566;BME280;20803;42.676;26.348;2023-08-06T00:13:35;97445.53;;;27.06;79.05
34566;BME280;20803;42.676;26.348;2023-08-06T00:16:13;97448.44;;;27.14;77.85
34566;BME280;20803;42.676;26.348;2023-08-06T00:18:39;97445.06;;;27.02;78.51
34566;BME280;20803;42.676;26.348;2023-08-06T00:21:05;97438.97;;;26.98;78.52
34566;BME280;20803;42.676;26.348;2023-08-06T00:23:30;97433.97;;;26.78;80.80
34566;BME280;20803;42.676;26.348;2023-08-06T00:25:56;97436.56;;;26.55;82.51
34566;BME280;20803;42.676;26.348;2023-08-06T00:28:21;97437.53;;;26.23;83.04
34566;BME280;20803;42.676;26.348;2023-08-06T00:30:52;97446.81;;;26.37;81.95
34566;BME280;20803;42.676;26.348;2023-08-06T00:33:18;97446.16;;;26.44;80.38
34566;BME280;20803;42.676;26.348;2023-08-06T00:35:43;97434.47;;;26.35;80.99
34566;BME280;20803;42.676;26.348;2023-08-06T00:38:08;97439.91;;;26.46;79.65
34566;BME280;20803;42.676;26.348;2023-08-06T00:40:34;97428.66;;;26.61;78.60
34566;BME280;20803;42.676;26.348;2023-08-06T00:42:59;97433.34;;;26.72;78.07
34566;BME280;20803;42.676;26.348;2023-08-06T00:45:25;97430.28;;;26.70;77.54
34566;BME280;20803;42.676;26.348;2023-08-06T00:47:51;97428.34;;;26.64;77.36
34566;BME280;20803;42.676;26.348;2023-08-06T00:50:17;97420.44;;;26.71;76.53
34566;BME280;20803;42.676;26.348;2023-08-06T00:52:43;97419.09;;;26.72;76.40
34566;BME280;20803;42.676;26.348;2023-08-06T00:55:09;97412.56;;;26.63;76.32
34566;BME280;20803;42.676;26.348;2023-08-06T00:57:35;97409.63;;;26.56;77.13
34566;BME280;20803;42.676;26.348;2023-08-06T01:00:01;97407.63;;;26.64;76.62
34566;BME280;20803;42.676;26.348;2023-08-06T01:02:26;97404.41;;;26.67;76.33
34566;BME280;20803;42.676;26.348;2023-08-06T01:04:51;97399.84;;;26.64;76.54
34566;BME280;20803;42.676;26.348;2023-08-06T01:07:26;97402.06;;;26.58;76.70
34566;BME280;20803;42.676;26.348;2023-08-06T01:12:55;97404.63;;;26.36;78.93
34566;BME280;20803;42.676;26.348;2023-08-06T01:15:30;97412.75;;;26.32;79.48
34566;BME280;20803;42.676;26.348;2023-08-06T01:17:57;97400.81;;;26.20;80.59
34566;BME280;20803;42.676;26.348;2023-08-06T01:20:28;97398.41;;;26.24;80.04
34566;BME280;20803;42.676;26.348;2023-08-06T01:22:53;97396.97;;;26.17;79.97
34566;BME280;20803;42.676;26.348;2023-08-06T01:25:19;97393.28;;;26.09;80.09
34566;BME280;20803;42.676;26.348;2023-08-06T01:27:47;97398.66;;;26.00;80.74
34566;BME280;20803;42.676;26.348;2023-08-06T01:30:17;97396.47;;;25.93;81.21
34566;BME280;20803;42.676;26.348;2023-08-06T01:32:49;97391.13;;;25.89;81.74
34566;BME280;20803;42.676;26.348;2023-08-06T01:35:17;97397.38;;;25.61;84.53
34566;BME280;20803;42.676;26.348;2023-08-06T01:37:45;97400.38;;;25.50;86.34
34566;BME280;20803;42.676;26.348;2023-08-06T01:40:12;97388.91;;;25.56;86.40
34566;BME280;20803;42.676;26.348;2023-08-06T01:42:38;97394.03;;;25.44;87.29
34566;BME280;20803;42.676;26.348;2023-08-06T01:45:05;97378.28;;;25.30;88.02
34566;BME280;20803;42.676;26.348;2023-08-06T01:47:31;97382.97;;;25.27;88.59
34566;BME280;20803;42.676;26.348;2023-08-06T01:49:56;97383.66;;;25.33;88.40
34566;BME280;20803;42.676;26.348;2023-08-06T01:52:21;97386.81;;;25.30;89.08
34566;BME280;20803;42.676;26.348;2023-08-06T01:54:47;97375.13;;;25.46;88.08
34566;BME280;20803;42.676;26.348;2023-08-06T01:57:12;97375.78;;;25.53;87.76
34566;BME280;20803;42.676;26.348;2023-08-06T01:59:38;97371.31;;;25.57;87.77
34566;BME280;20803;42.676;26.348;2023-08-06T02:02:03;97363.66;;;25.65;87.22
34566;BME280;20803;42.676;26.348;2023-08-06T02:04:29;97359.50;;;25.79;86.51
34566;BME280;20803;42.676;26.348;2023-08-06T02:06:54;97353.56;;;25.91;85.24
34566;BME280;20803;42.676;26.348;2023-08-06T02:09:20;97358.03;;;25.99;84.42
34566;BME280;20803;42.676;26.348;2023-08-06T02:11:45;97355.81;;;26.05;84.32
34566;BME280;20803;42.676;26.348;2023-08-06T02:14:10;97360.97;;;26.07;83.67
34566;BME280;20803;42.676;26.348;2023-08-06T02:16:37;97369.19;;;26.10;83.06
34566;BME280;20803;42.676;26.348;2023-08-06T02:19:02;97367.72;;;26.17;82.21
34566;BME280;20803;42.676;26.348;2023-08-06T02:21:28;97359.63;;;26.21;81.39
34566;BME280;20803;42.676;26.348;2023-08-06T02:23:53;97362.94;;;26.25;81.06
34566;BME280;20803;42.676;26.348;2023-08-06T02:26:18;97359.00;;;26.28;80.67
34566;BME280;20803;42.676;26.348;2023-08-06T02:28:44;97350.53;;;26.22;81.30
34566;BME280;20803;42.676;26.348;2023-08-06T02:31:09;97352.63;;;26.22;81.08
34566;BME280;20803;42.676;26.348;2023-08-06T02:33:35;97362.38;;;26.27;80.56
34566;BME280;20803;42.676;26.348;2023-08-06T02:36:04;97350.09;;;26.32;80.24
34566;BME280;20803;42.676;26.348;2023-08-06T02:38:30;97355.44;;;26.35;79.83
34566;BME280;20803;42.676;26.348;2023-08-06T02:40:56;97352.81;;;26.37;79.59
34566;BME280;20803;42.676;26.348;2023-08-06T02:43:21;97344.47;;;26.39;78.99
34566;BME280;20803;42.676;26.348;2023-08-06T02:45:47;97347.97;;;26.45;78.56
34566;BME280;20803;42.676;26.348;2023-08-06T02:48:12;97345.88;;;26.46;77.68
34566;BME280;20803;42.676;26.348;2023-08-06T02:50:39;97350.19;;;26.39;78.08
34566;BME280;20803;42.676;26.348;2023-08-06T02:53:05;97346.56;;;26.39;78.23
34566;BME280;20803;42.676;26.348;2023-08-06T02:55:31;97354.56;;;26.40;78.48
34566;BME280;20803;42.676;26.348;2023-08-06T02:57:56;97347.19;;;26.45;78.04
34566;BME280;20803;42.676;26.348;2023-08-06T03:00:21;97340.50;;;26.42;78.06
34566;BME280;20803;42.676;26.348;2023-08-06T03:02:47;97335.72;;;26.37;78.02
34566;BME280;20803;42.676;26.348;2023-08-06T03:05:12;97343.34;;;26.42;77.76
34566;BME280;20803;42.676;26.348;2023-08-06T03:07:38;97334.63;;;26.40;77.67
34566;BME280;20803;42.676;26.348;2023-08-06T03:10:03;97326.63;;;26.39;77.95
34566;BME280;20803;42.676;26.348;2023-08-06T03:12:29;97322.03;;;26.36;78.05
34566;BME280;20803;42.676;26.348;2023-08-06T03:14:54;97319.16;;;26.36;78.13
34566;BME280;20803;42.676;26.348;2023-08-06T03:17:20;97317.84;;;26.37;78.00
34566;BME280;20803;42.676;26.348;2023-08-06T03:19:45;97312.50;;;26.33;78.26
34566;BME280;20803;42.676;26.348;2023-08-06T03:22:11;97320.06;;;26.31;78.32
34566;BME280;20803;42.676;26.348;2023-08-06T03:24:36;97314.59;;;26.33;78.40
34566;BME280;20803;42.676;26.348;2023-08-06T03:27:01;97316.47;;;26.30;78.39
34566;BME280;20803;42.676;26.348;2023-08-06T03:29:27;97306.06;;;26.33;78.50
34566;BME280;20803;42.676;26.348;2023-08-06T03:31:52;97310.63;;;26.36;78.46
34566;BME280;20803;42.676;26.348;2023-08-06T03:34:18;97318.78;;;26.18;80.20
34566;BME280;20803;42.676;26.348;2023-08-06T03:36:43;97319.75;;;26.21;80.30
34566;BME280;20803;42.676;26.348;2023-08-06T03:39:09;97313.19;;;26.26;79.92
34566;BME280;20803;42.676;26.348;2023-08-06T03:41:35;97323.13;;;26.33;79.18
34566;BME280;20803;42.676;26.348;2023-08-06T03:44:00;97320.16;;;26.38;78.77
34566;BME280;20803;42.676;26.348;2023-08-06T03:46:28;97323.69;;;26.31;79.00
34566;BME280;20803;42.676;26.348;2023-08-06T03:48:53;97319.22;;;26.22;79.08
34566;BME280;20803;42.676;26.348;2023-08-06T03:51:18;97322.88;;;26.10;80.10
34566;BME280;20803;42.676;26.348;2023-08-06T03:53:44;97314.34;;;25.97;81.35
34566;BME280;20803;42.676;26.348;2023-08-06T03:56:09;97320.59;;;25.95;81.82
34566;BME280;20803;42.676;26.348;2023-08-06T03:58:35;97319.44;;;25.77;83.98
34566;BME280;20803;42.676;26.348;2023-08-06T04:01:01;97314.16;;;25.81;84.01
34566;BME280;20803;42.676;26.348;2023-08-06T04:03:27;97314.59;;;25.85;84.23
34566;BME280;20803;42.676;26.348;2023-08-06T04:05:54;97313.25;;;26.00;83.19
34566;BME280;20803;42.676;26.348;2023-08-06T04:08:19;97306.50;;;25.90;84.51
34566;BME280;20803;42.676;26.348;2023-08-06T04:10:45;97314.81;;;25.74;85.40
34566;BME280;20803;42.676;26.348;2023-08-06T04:13:10;97306.19;;;25.54;87.50
34566;BME280;20803;42.676;26.348;2023-08-06T04:15:36;97303.25;;;25.59;87.30
34566;BME280;20803;42.676;26.348;2023-08-06T04:18:01;97297.22;;;25.76;86.42
34566;BME280;20803;42.676;26.348;2023-08-06T04:20:27;97300.38;;;25.85;86.56
34566;BME280;20803;42.676;26.348;2023-08-06T04:22:54;97300.63;;;26.08;85.06
34566;BME280;20803;42.676;26.348;2023-08-06T04:25:20;97285.34;;;26.32;83.09
34566;BME280;20803;42.676;26.348;2023-08-06T04:27:49;97292.78;;;26.56;81.56
34566;BME280;20803;42.676;26.348;2023-08-06T04:30:15;97287.34;;;26.65;81.43
34566;BME280;20803;42.676;26.348;2023-08-06T04:32:40;97287.41;;;26.73;80.80
34566;BME280;20803;42.676;26.348;2023-08-06T04:35:06;97293.81;;;26.87;79.88
34566;BME280;20803;42.676;26.348;2023-08-06T04:37:32;97300.72;;;26.71;80.52
34566;BME280;20803;42.676;26.348;2023-08-06T04:39:57;97303.00;;;26.72;80.63
34566;BME280;20803;42.676;26.348;2023-08-06T04:42:22;97300.91;;;26.73;81.23
34566;BME280;20803;42.676;26.348;2023-08-06T04:44:48;97304.81;;;26.62;81.45
34566;BME280;20803;42.676;26.348;2023-08-06T04:47:13;97302.03;;;26.49;82.65
34566;BME280;20803;42.676;26.348;2023-08-06T04:49:39;97310.44;;;26.54;83.90
34566;BME280;20803;42.676;26.348;2023-08-06T04:52:05;97302.66;;;26.34;84.28
34566;BME280;20803;42.676;26.348;2023-08-06T04:54:30;97300.28;;;26.46;83.68
34566;BME280;20803;42.676;26.348;2023-08-06T04:56:56;97302.94;;;26.44;83.82
34566;BME280;20803;42.676;26.348;2023-08-06T04:59:21;97303.28;;;26.61;82.53
34566;BME280;20803;42.676;26.348;2023-08-06T05:01:46;97304.75;;;26.75;82.77
34566;BME280;20803;42.676;26.348;2023-08-06T05:04:12;97296.66;;;26.87;81.47
34566;BME280;20803;42.676;26.348;2023-08-06T05:06:37;97290.38;;;27.09;80.10
34566;BME280;20803;42.676;26.348;2023-08-06T05:09:06;97287.53;;;27.37;79.29
34566;BME280;20803;42.676;26.348;2023-08-06T05:11:31;97289.03;;;27.67;77.79
34566;BME280;20803;42.676;26.348;2023-08-06T05:13:57;97290.66;;;27.91;74.83
34566;BME280;20803;42.676;26.348;2023-08-06T05:16:23;97291.63;;;27.93;74.96
34566;BME280;20803;42.676;26.348;2023-08-06T05:18:49;97285.56;;;28.04;74.14
34566;BME280;20803;42.676;26.348;2023-08-06T05:21:14;97292.50;;;28.24;73.28
34566;BME280;20803;42.676;26.348;2023-08-06T05:23:42;97291.41;;;28.50;72.25
34566;BME280;20803;42.676;26.348;2023-08-06T05:26:07;97300.38;;;28.61;70.81
34566;BME280;20803;42.676;26.348;2023-08-06T05:28:33;97296.59;;;28.82;70.23
34566;BME280;20803;42.676;26.348;2023-08-06T05:30:59;97294.91;;;29.01;69.18
34566;BME280;20803;42.676;26.348;2023-08-06T05:33:27;97290.13;;;28.96;69.05
34566;BME280;20803;42.676;26.348;2023-08-06T05:35:53;97289.16;;;28.71;70.77
34566;BME280;20803;42.676;26.348;2023-08-06T05:38:18;97284.59;;;28.76;71.18
34566;BME280;20803;42.676;26.348;2023-08-06T05:40:44;97281.34;;;28.87;70.96
34566;BME280;20803;42.676;26.348;2023-08-06T05:43:09;97286.47;;;29.03;69.99
34566;BME280;20803;42.676;26.348;2023-08-06T05:45:35;97272.38;;;29.21;68.58
34566;BME280;20803;42.676;26.348;2023-08-06T05:48:00;97278.28;;;29.38;65.32
34566;BME280;20803;42.676;26.348;2023-08-06T05:50:25;97272.13;;;29.49;63.80
34566;BME280;20803;42.676;26.348;2023-08-06T05:52:51;97271.31;;;29.64;63.44
34566;BME280;20803;42.676;26.348;2023-08-06T05:55:17;97267.28;;;29.67;62.70
34566;BME280;20803;42.676;26.348;2023-08-06T05:57:42;97261.88;;;29.86;62.39
34566;BME280;20803;42.676;26.348;2023-08-06T06:00:08;97276.03;;;29.76;62.12
34566;BME280;20803;42.676;26.348;2023-08-06T06:02:34;97274.66;;;29.85;61.33
34566;BME280;20803;42.676;26.348;2023-08-06T06:04:59;97274.66;;;29.93;60.64
34566;BME280;20803;42.676;26.348;2023-08-06T06:07:25;97268.69;;;30.06;60.72
34566;BME280;20803;42.676;26.348;2023-08-06T06:09:50;97267.81;;;30.20;60.94
34566;BME280;20803;42.676;26.348;2023-08-06T06:12:16;97274.34;;;30.13;61.10
34566;BME280;20803;42.676;26.348;2023-08-06T06:14:41;97274.75;;;30.10;59.67
34566;BME280;20803;42.676;26.348;2023-08-06T06:17:06;97268.63;;;30.13;60.42
34566;BME280;20803;42.676;26.348;2023-08-06T06:19:32;97254.75;;;30.02;60.27
34566;BME280;20803;42.676;26.348;2023-08-06T06:21:57;97256.50;;;29.98;61.17
34566;BME280;20803;42.676;26.348;2023-08-06T06:24:23;97259.69;;;30.02;60.49
34566;BME280;20803;42.676;26.348;2023-08-06T06:26:48;97257.91;;;30.14;60.88
34566;BME280;20803;42.676;26.348;2023-08-06T06:29:13;97266.47;;;30.21;61.30
34566;BME280;20803;42.676;26.348;2023-08-06T06:31:39;97258.41;;;30.28;62.18
34566;BME280;20803;42.676;26.348;2023-08-06T06:34:04;97260.06;;;30.38;61.96
34566;BME280;20803;42.676;26.348;2023-08-06T06:36:30;97257.91;;;30.46;61.61
34566;BME280;20803;42.676;26.348;2023-08-06T06:38:55;97265.25;;;30.32;61.91
34566;BME280;20803;42.676;26.348;2023-08-06T06:41:20;97257.13;;;30.21;63.44
34566;BME280;20803;42.676;26.348;2023-08-06T06:43:46;97259.56;;;29.92;65.21
34566;BME280;20803;42.676;26.348;2023-08-06T06:46:11;97264.28;;;29.57;67.04
34566;BME280;20803;42.676;26.348;2023-08-06T06:48:36;97256.50;;;29.42;68.59
34566;BME280;20803;42.676;26.348;2023-08-06T06:51:02;97267.97;;;29.27;69.69
34566;BME280;20803;42.676;26.348;2023-08-06T06:53:28;97275.22;;;29.05;72.02
34566;BME280;20803;42.676;26.348;2023-08-06T06:56:02;97275.63;;;28.87;73.48
34566;BME280;20803;42.676;26.348;2023-08-06T06:58:27;97284.41;;;28.89;72.33
34566;BME280;20803;42.676;26.348;2023-08-06T07:00:53;97284.97;;;28.87;72.75
34566;BME280;20803;42.676;26.348;2023-08-06T07:03:19;97288.03;;;28.89;74.69
34566;BME280;20803;42.676;26.348;2023-08-06T07:05:45;97287.84;;;28.95;74.40
34566;BME280;20803;42.676;26.348;2023-08-06T07:08:10;97299.09;;;29.00;73.28
34566;BME280;20803;42.676;26.348;2023-08-06T07:10:36;97288.22;;;28.99;72.48
34566;BME280;20803;42.676;26.348;2023-08-06T07:13:02;97272.56;;;28.92;72.81
34566;BME280;20803;42.676;26.348;2023-08-06T07:15:27;97269.31;;;29.03;73.12
34566;BME280;20803;42.676;26.348;2023-08-06T07:17:53;97270.09;;;29.04;71.28
34566;BME280;20803;42.676;26.348;2023-08-06T07:20:18;97266.03;;;29.22;70.35
34566;BME280;20803;42.676;26.348;2023-08-06T07:22:44;97274.25;;;29.41;69.07
34566;BME280;20803;42.676;26.348;2023-08-06T07:25:10;97282.56;;;29.69;69.07
34566;BME280;20803;42.676;26.348;2023-08-06T07:27:35;97281.06;;;29.61;69.65
34566;BME280;20803;42.676;26.348;2023-08-06T07:30:01;97282.97;;;29.58;70.40
34566;BME280;20803;42.676;26.348;2023-08-06T07:32:26;97285.47;;;29.47;71.87
34566;BME280;20803;42.676;26.348;2023-08-06T07:34:53;97280.72;;;29.49;71.83
34566;BME280;20803;42.676;26.348;2023-08-06T07:37:22;97286.22;;;29.62;71.53
34566;BME280;20803;42.676;26.348;2023-08-06T07:39:48;97282.97;;;29.58;71.24
34566;BME280;20803;42.676;26.348;2023-08-06T07:42:13;97275.69;;;29.65;71.68
34566;BME280;20803;42.676;26.348;2023-08-06T07:44:39;97273.56;;;29.73;71.13
34566;BME280;20803;42.676;26.348;2023-08-06T07:47:04;97270.69;;;29.80;71.04
34566;BME280;20803;42.676;26.348;2023-08-06T07:49:30;97269.13;;;29.95;70.69
34566;BME280;20803;42.676;26.348;2023-08-06T07:51:55;97253.06;;;29.99;70.51
34566;BME280;20803;42.676;26.348;2023-08-06T07:54:21;97275.56;;;30.03;70.16
34566;BME280;20803;42.676;26.348;2023-08-06T07:56:47;97283.63;;;29.97;69.90
34566;BME280;20803;42.676;26.348;2023-08-06T07:59:12;97286.09;;;30.00;69.63
34566;BME280;20803;42.676;26.348;2023-08-06T08:01:38;97285.09;;;30.05;68.39
34566;BME280;20803;42.676;26.348;2023-08-06T08:04:03;97291.97;;;30.10;67.40
34566;BME280;20803;42.676;26.348;2023-08-06T08:06:30;97294.59;;;30.15;66.99
34566;BME280;20803;42.676;26.348;2023-08-06T08:08:55;97299.34;;;30.20;67.27
34566;BME280;20803;42.676;26.348;2023-08-06T08:11:20;97304.47;;;30.30;67.06
34566;BME280;20803;42.676;26.348;2023-08-06T08:13:46;97298.97;;;30.24;66.66
34566;BME280;20803;42.676;26.348;2023-08-06T08:16:11;97298.72;;;30.30;66.59
34566;BME280;20803;42.676;26.348;2023-08-06T08:18:37;97297.88;;;30.44;66.21
34566;BME280;20803;42.676;26.348;2023-08-06T08:21:02;97286.53;;;30.61;65.30
34566;BME280;20803;42.676;26.348;2023-08-06T08:23:28;97263.06;;;30.48;64.66
34566;BME280;20803;42.676;26.348;2023-08-06T08:25:53;97253.56;;;30.13;65.02
34566;BME280;20803;42.676;26.348;2023-08-06T08:28:19;97254.13;;;30.11;65.73
34566;BME280;20803;42.676;26.348;2023-08-06T08:30:45;97248.88;;;29.93;66.76
34566;BME280;20803;42.676;26.348;2023-08-06T08:33:10;97228.25;;;29.87;66.82
34566;BME280;20803;42.676;26.348;2023-08-06T08:35:36;97235.47;;;29.95;68.02
34566;BME280;20803;42.676;26.348;2023-08-06T08:38:02;97243.91;;;29.93;68.39
34566;BME280;20803;42.676;26.348;2023-08-06T08:40:31;97236.84;;;29.87;66.13
34566;BME280;20803;42.676;26.348;2023-08-06T08:43:01;97234.00;;;29.79;65.82
34566;BME280;20803;42.676;26.348;2023-08-06T08:45:29;97218.28;;;29.95;65.29
34566;BME280;20803;42.676;26.348;2023-08-06T08:47:55;97195.91;;;30.01;64.58
34566;BME280;20803;42.676;26.348;2023-08-06T08:50:21;97179.91;;;29.91;64.53
34566;BME280;20803;42.676;26.348;2023-08-06T08:52:47;97178.38;;;29.90;64.84
34566;BME280;20803;42.676;26.348;2023-08-06T08:55:15;97166.00;;;29.87;64.31
34566;BME280;20803;42.676;26.348;2023-08-06T08:57:41;97191.19;;;29.56;64.29
34566;BME280;20803;42.676;26.348;2023-08-06T09:00:07;97242.78;;;29.26;63.18
34566;BME280;20803;42.676;26.348;2023-08-06T09:02:33;97313.50;;;28.42;71.46
34566;BME280;20803;42.676;26.348;2023-08-06T09:05:03;97256.97;;;24.16;100.00
34566;BME280;20803;42.676;26.348;2023-08-06T09:07:35;97297.31;;;23.10;100.00
34566;BME280;20803;42.676;26.348;2023-08-06T09:10:04;97302.25;;;22.49;100.00
34566;BME280;20803;42.676;26.348;2023-08-06T09:12:32;97301.25;;;22.77;100.00
34566;BME280;20803;42.676;26.348;2023-08-06T09:14:57;97260.09;;;23.19;100.00
34566;BME280;20803;42.676;26.348;2023-08-06T09:17:23;97270.63;;;23.42;100.00
34566;BME280;20803;42.676;26.348;2023-08-06T09:19:49;97267.75;;;23.67;100.00
34566;BME280;20803;42.676;26.348;2023-08-06T09:22:33;97263.75;;;23.94;100.00
34566;BME280;20803;42.676;26.348;2023-08-06T09:25:00;97241.88;;;24.27;100.00
34566;BME280;20803;42.676;26.348;2023-08-06T09:27:26;97222.72;;;24.59;100.00
34566;BME280;20803;42.676;26.348;2023-08-06T09:29:51;97210.75;;;24.92;100.00
34566;BME280;20803;42.676;26.348;2023-08-06T09:32:17;97198.13;;;25.27;100.00
34566;BME280;20803;42.676;26.348;2023-08-06T09:34:42;97172.25;;;25.65;100.00
34566;BME280;20803;42.676;26.348;2023-08-06T09:37:09;97174.44;;;25.93;100.00
34566;BME280;20803;42.676;26.348;2023-08-06T09:39:37;97200.16;;;26.21;100.00
34566;BME280;20803;42.676;26.348;2023-08-06T09:42:03;97191.59;;;26.42;100.00
34566;BME280;20803;42.676;26.348;2023-08-06T09:44:31;97207.75;;;26.67;96.22
34566;BME280;20803;42.676;26.348;2023-08-06T09:46:58;97202.56;;;26.87;94.59
34566;BME280;20803;42.676;26.348;2023-08-06T09:49:28;97186.38;;;27.10;93.32
34566;BME280;20803;42.676;26.348;2023-08-06T09:52:05;97167.63;;;27.22;89.90
34566;BME280;20803;42.676;26.348;2023-08-06T09:54:32;97149.19;;;27.23;90.64
34566;BME280;20803;42.676;26.348;2023-08-06T09:56:59;97150.75;;;27.32;89.15
34566;BME280;20803;42.676;26.348;2023-08-06T09:59:25;97162.75;;;27.45;88.91
34566;BME280;20803;42.676;26.348;2023-08-06T10:01:53;97204.13;;;27.60;86.09
34566;BME280;20803;42.676;26.348;2023-08-06T10:04:20;97221.66;;;27.28;83.79
34566;BME280;20803;42.676;26.348;2023-08-06T10:06:47;97222.66;;;27.02;85.14
34566;BME280;20803;42.676;26.348;2023-08-06T10:09:15;97235.19;;;26.99;85.73
34566;BME280;20803;42.676;26.348;2023-08-06T10:11:42;97248.28;;;26.94;79.95
34566;BME280;20803;42.676;26.348;2023-08-06T10:14:15;97205.97;;;27.06;82.64
34566;BME280;20803;42.676;26.348;2023-08-06T10:16:42;97167.75;;;26.81;88.37
34566;BME280;20803;42.676;26.348;2023-08-06T10:19:10;97197.31;;;26.91;88.67
34566;BME280;20803;42.676;26.348;2023-08-06T10:21:40;97233.31;;;27.01;83.01
34566;BME280;20803;42.676;26.348;2023-08-06T10:24:08;97234.78;;;26.95;83.83
34566;BME280;20803;42.676;26.348;2023-08-06T10:26:36;97262.22;;;27.05;85.24
34566;BME280;20803;42.676;26.348;2023-08-06T10:29:01;97282.75;;;27.04;87.14
34566;BME280;20803;42.676;26.348;2023-08-06T10:32:02;97274.81;;;27.10;88.45
34566;BME280;20803;42.676;26.348;2023-08-06T10:34:53;97273.94;;;27.23;88.33
34566;BME280;20803;42.676;26.348;2023-08-06T10:37:18;97249.84;;;27.39;88.91
34566;BME280;20803;42.676;26.348;2023-08-06T10:39:53;97244.06;;;27.52;88.88
34566;BME280;20803;42.676;26.348;2023-08-06T10:42:22;97230.81;;;27.70;87.49
34566;BME280;20803;42.676;26.348;2023-08-06T10:47:39;97226.09;;;27.80;93.39
34566;BME280;20803;42.676;26.348;2023-08-06T10:50:07;97271.78;;;27.88;81.04
34566;BME280;20803;42.676;26.348;2023-08-06T10:52:34;97293.69;;;27.85;79.70
34566;BME280;20803;42.676;26.348;2023-08-06T10:54:59;97298.81;;;27.79;80.98
34566;BME280;20803;42.676;26.348;2023-08-06T10:57:25;97299.03;;;27.89;83.95
34566;BME280;20803;42.676;26.348;2023-08-06T10:59:50;97300.22;;;27.93;87.14
34566;BME280;20803;42.676;26.348;2023-08-06T11:02:16;97295.22;;;27.94;78.15
34566;BME280;20803;42.676;26.348;2023-08-06T11:04:41;97299.84;;;28.04;84.37
34566;BME280;20803;42.676;26.348;2023-08-06T11:07:07;97301.25;;;28.18;86.22
34566;BME280;20803;42.676;26.348;2023-08-06T11:09:32;97305.50;;;28.40;77.62
34566;BME280;20803;42.676;26.348;2023-08-06T11:11:58;97296.00;;;28.53;73.48
34566;BME280;20803;42.676;26.348;2023-08-06T11:14:23;97290.28;;;28.60;68.92
34566;BME280;20803;42.676;26.348;2023-08-06T11:16:50;97289.19;;;28.79;69.36
34566;BME280;20803;42.676;26.348;2023-08-06T11:19:15;97292.59;;;29.00;70.14
34566;BME280;20803;42.676;26.348;2023-08-06T11:21:42;97289.91;;;29.10;70.33
34566;BME280;20803;42.676;26.348;2023-08-06T11:24:10;97285.91;;;29.20;68.49
34566;BME280;20803;42.676;26.348;2023-08-06T11:26:36;97291.03;;;29.29;64.25
34566;BME280;20803;42.676;26.348;2023-08-06T11:29:02;97312.78;;;29.40;60.96
34566;BME280;20803;42.676;26.348;2023-08-06T11:31:28;97322.34;;;29.20;62.11
34566;BME280;20803;42.676;26.348;2023-08-06T11:33:55;97323.50;;;29.01;67.05
34566;BME280;20803;42.676;26.348;2023-08-06T11:36:31;97328.47;;;28.78;68.10
34566;BME280;20803;42.676;26.348;2023-08-06T11:38:58;97316.06;;;28.83;60.81
34566;BME280;20803;42.676;26.348;2023-08-06T11:41:24;97312.44;;;29.05;61.80
34566;BME280;20803;42.676;26.348;2023-08-06T11:43:50;97308.03;;;29.35;62.07
34566;BME280;20803;42.676;26.348;2023-08-06T11:46:15;97311.59;;;29.58;61.61
34566;BME280;20803;42.676;26.348;2023-08-06T11:48:56;97301.00;;;29.83;61.59
34566;BME280;20803;42.676;26.348;2023-08-06T11:51:23;97303.09;;;29.98;61.47
34566;BME280;20803;42.676;26.348;2023-08-06T11:53:49;97298.09;;;30.06;59.81
34566;BME280;20803;42.676;26.348;2023-08-06T11:56:15;97309.47;;;30.21;59.54
34566;BME280;20803;42.676;26.348;2023-08-06T11:58:42;97318.72;;;30.05;59.73
34566;BME280;20803;42.676;26.348;2023-08-06T12:01:07;97340.44;;;29.60;62.06
34566;BME280;20803;42.676;26.348;2023-08-06T12:03:39;97353.81;;;29.35;66.01
34566;BME280;20803;42.676;26.348;2023-08-06T12:06:04;97354.78;;;28.99;67.04
34566;BME280;20803;42.676;26.348;2023-08-06T12:08:29;97357.38;;;28.59;71.87
34566;BME280;20803;42.676;26.348;2023-08-06T12:10:55;97353.81;;;28.15;69.40
34566;BME280;20803;42.676;26.348;2023-08-06T12:13:20;97328.50;;;27.83;69.05
34566;BME280;20803;42.676;26.348;2023-08-06T12:15:46;97316.19;;;27.53;71.94
34566;BME280;20803;42.676;26.348;2023-08-06T12:18:11;97327.59;;;27.53;76.00
34566;BME280;20803;42.676;26.348;2023-08-06T12:20:37;97318.59;;;27.20;80.40
34566;BME280;20803;42.676;26.348;2023-08-06T12:23:03;97306.19;;;27.10;87.41
34566;BME280;20803;42.676;26.348;2023-08-06T12:25:29;97293.66;;;27.13;88.20
34566;BME280;20803;42.676;26.348;2023-08-06T12:27:54;97285.28;;;27.15;88.09
34566;BME280;20803;42.676;26.348;2023-08-06T12:30:20;97280.03;;;27.27;86.18
34566;BME280;20803;42.676;26.348;2023-08-06T12:32:45;97277.53;;;27.52;85.99
34566;BME280;20803;42.676;26.348;2023-08-06T12:35:11;97280.47;;;27.31;85.15
34566;BME280;20803;42.676;26.348;2023-08-06T12:37:36;97281.78;;;27.30;85.26
34566;BME280;20803;42.676;26.348;2023-08-06T12:40:04;97289.88;;;27.18;84.48
34566;BME280;20803;42.676;26.348;2023-08-06T12:42:29;97291.22;;;27.17;83.79
34566;BME280;20803;42.676;26.348;2023-08-06T12:44:55;97301.38;;;27.05;82.23
34566;BME280;20803;42.676;26.348;2023-08-06T12:47:20;97293.13;;;27.22;83.71
34566;BME280;20803;42.676;26.348;2023-08-06T12:49:46;97282.13;;;27.55;82.35
34566;BME280;20803;42.676;26.348;2023-08-06T12:52:11;97278.47;;;27.90;77.07